sensor_id;sensor_type;location;lat;lon;timestamp;P1;durP1;ratioP1;P2;durP2;ratioP2
53497;SDS011;39382;47.168;16.008;2023-02-28T00:00:47;1.80;;;1.50;;
53497;SDS011;39382;47.168;16.008;2023-02-28T00:03:13;4.00;;;1.60;;
53497;SDS011;39382;47.168;16.008;2023-02-28T00:05:39;4.50;;;2.20;;
53497;SDS011;39382;47.168;16.008;2023-02-28T00:08:04;4.20;;;1.50;;
53497;SDS011;39382;47.168;16.008;2023-02-28T00:10:30;5.85;;;2.00;;
53497;SDS011;39382;47.168;16.008;2023-02-28T00:13:01;3.72;;;2.00;;
53497;SDS011;39382;47.168;16.008;2023-02-28T00:15:29;4.90;;;2.03;;
53497;SDS011;39382;47.168;16.008;2023-02-28T00:17:56;3.47;;;1.85;;
53497;SDS011;39382;47.168;16.008;2023-02-28T00:20:21;2.40;;;2.20;;
53497;SDS011;39382;47.168;16.008;2023-02-28T00:22:48;2.67;;;1.52;;
53497;SDS011;39382;47.168;16.008;2023-02-28T00:25:16;5.30;;;2.20;;
53497;SDS011;39382;47.168;16.008;2023-02-28T00:27:43;2.53;;;1.67;;
53497;SDS011;39382;47.168;16.008;2023-02-28T00:30:11;4.03;;;1.95;;
53497;SDS011;39382;47.168;16.008;2023-02-28T00:32:38;7.70;;;1.67;;
53497;SDS011;39382;47.168;16.008;2023-02-28T00:35:04;5.95;;;2.20;;
53497;SDS011;39382;47.168;16.008;2023-02-28T00:37:31;4.03;;;2.08;;
53497;SDS011;39382;47.168;16.008;2023-02-28T00:39:57;4.97;;;2.67;;
53497;SDS011;39382;47.168;16.008;2023-02-28T00:42:23;7.57;;;2.40;;
53497;SDS011;39382;47.168;16.008;2023-02-28T00:44:49;3.80;;;2.22;;
53497;SDS011;39382;47.168;16.008;2023-02-28T00:47:14;5.18;;;2.20;;
53497;SDS011;39382;47.168;16.008;2023-02-28T00:49:41;2.35;;;1.65;;
53497;SDS011;39382;47.168;16.008;2023-02-28T00:52:06;6.40;;;2.33;;
53497;SDS011;39382;47.168;16.008;2023-02-28T00:54:32;3.85;;;2.42;;
53497;SDS011;39382;47.168;16.008;2023-02-28T00:56:58;4.57;;;2.50;;
53497;SDS011;39382;47.168;16.008;2023-02-28T00:59:24;4.68;;;2.33;;
53497;SDS011;39382;47.168;16.008;2023-02-28T01:01:49;4.40;;;2.65;;
53497;SDS011;39382;47.168;16.008;2023-02-28T01:04:15;2.63;;;2.08;;
53497;SDS011;39382;47.168;16.008;2023-02-28T01:06:41;4.50;;;2.65;;
53497;SDS011;39382;47.168;16.008;2023-02-28T01:09:07;6.05;;;2.88;;
53497;SDS011;39382;47.168;16.008;2023-02-28T01:11:33;2.50;;;1.83;;
53497;SDS011;39382;47.168;16.008;2023-02-28T01:13:59;3.25;;;2.17;;
53497;SDS011;39382;47.168;16.008;2023-02-28T01:16:25;4.13;;;2.03;;
53497;SDS011;39382;47.168;16.008;2023-02-28T01:18:51;8.13;;;2.63;;
53497;SDS011;39382;47.168;16.008;2023-02-28T01:21:18;3.20;;;2.05;;
53497;SDS011;39382;47.168;16.008;2023-02-28T01:23:45;4.13;;;1.92;;
53497;SDS011;39382;47.168;16.008;2023-02-28T01:26:19;3.03;;;2.22;;
53497;SDS011;39382;47.168;16.008;2023-02-28T01:28:47;7.23;;;2.57;;
53497;SDS011;39382;47.168;16.008;2023-02-28T01:31:14;5.07;;;2.10;;
53497;SDS011;39382;47.168;16.008;2023-02-28T01:33:40;6.18;;;2.60;;
53497;SDS011;39382;47.168;16.008;2023-02-28T01:36:16;6.10;;;2.78;;
53497;SDS011;39382;47.168;16.008;2023-02-28T01:38:44;6.28;;;2.60;;
53497;SDS011;39382;47.168;16.008;2023-02-28T01:41:21;5.20;;;2.03;;
53497;SDS011;39382;47.168;16.008;2023-02-28T01:43:53;3.17;;;2.42;;
53497;SDS011;39382;47.168;16.008;2023-02-28T01:46:24;7.05;;;2.60;;
53497;SDS011;39382;47.168;16.008;2023-02-28T01:49:00;4.22;;;2.40;;
53497;SDS011;39382;47.168;16.008;2023-02-28T01:51:43;5.35;;;2.67;;
53497;SDS011;39382;47.168;16.008;2023-02-28T01:54:24;3.53;;;2.38;;
53497;SDS011;39382;47.168;16.008;2023-02-28T01:57:06;5.85;;;2.97;;
53497;SDS011;39382;47.168;16.008;2023-02-28T01:59:42;3.58;;;2.50;;
53497;SDS011;39382;47.168;16.008;2023-02-28T02:02:19;8.07;;;3.35;;
53497;SDS011;39382;47.168;16.008;2023-02-28T02:07:34;6.35;;;3.60;;
53497;SDS011;39382;47.168;16.008;2023-02-28T02:18:17;7.00;;;3.58;;
53497;SDS011;39382;47.168;16.008;2023-02-28T02:29:04;7.00;;;3.38;;
53497;SDS011;39382;47.168;16.008;2023-02-28T02:31:37;5.75;;;2.92;;
53497;SDS011;39382;47.168;16.008;2023-02-28T02:36:49;4.57;;;2.50;;
53497;SDS011;39382;47.168;16.008;2023-02-28T02:39:31;2.95;;;2.03;;
53497;SDS011;39382;47.168;16.008;2023-02-28T02:42:22;4.63;;;2.60;;
53497;SDS011;39382;47.168;16.008;2023-02-28T02:45:01;5.53;;;2.80;;
53497;SDS011;39382;47.168;16.008;2023-02-28T02:47:41;7.43;;;3.33;;
53497;SDS011;39382;47.168;16.008;2023-02-28T02:50:11;4.65;;;2.92;;
53497;SDS011;39382;47.168;16.008;2023-02-28T02:52:46;4.07;;;2.80;;
53497;SDS011;39382;47.168;16.008;2023-02-28T02:55:16;6.35;;;2.97;;
53497;SDS011;39382;47.168;16.008;2023-02-28T02:57:51;6.18;;;3.58;;
53497;SDS011;39382;47.168;16.008;2023-02-28T03:00:22;5.97;;;3.05;;
53497;SDS011;39382;47.168;16.008;2023-02-28T03:02:51;6.07;;;2.78;;
53497;SDS011;39382;47.168;16.008;2023-02-28T03:05:21;6.53;;;3.60;;
53497;SDS011;39382;47.168;16.008;2023-02-28T03:07:51;6.72;;;2.63;;
53497;SDS011;39382;47.168;16.008;2023-02-28T03:10:30;7.40;;;3.38;;
53497;SDS011;39382;47.168;16.008;2023-02-28T03:27:10;31.95;;;9.60;;
53497;SDS011;39382;47.168;16.008;2023-02-28T03:30:09;18.23;;;6.43;;
53497;SDS011;39382;47.168;16.008;2023-02-28T03:32:43;12.18;;;4.35;;
53497;SDS011;39382;47.168;16.008;2023-02-28T03:35:19;9.80;;;3.95;;
53497;SDS011;39382;47.168;16.008;2023-02-28T03:37:48;8.07;;;3.25;;
53497;SDS011;39382;47.168;16.008;2023-02-28T03:40:19;5.90;;;2.80;;
53497;SDS011;39382;47.168;16.008;2023-02-28T03:42:47;4.10;;;3.05;;
53497;SDS011;39382;47.168;16.008;2023-02-28T03:45:28;11.15;;;3.67;;
53497;SDS011;39382;47.168;16.008;2023-02-28T03:48:01;6.20;;;3.25;;
53497;SDS011;39382;47.168;16.008;2023-02-28T03:50:49;4.32;;;2.92;;
53497;SDS011;39382;47.168;16.008;2023-02-28T03:53:27;5.90;;;3.00;;
53497;SDS011;39382;47.168;16.008;2023-02-28T03:56:02;7.13;;;4.28;;
53497;SDS011;39382;47.168;16.008;2023-02-28T03:58:38;4.85;;;3.10;;
53497;SDS011;39382;47.168;16.008;2023-02-28T04:04:06;5.28;;;3.22;;
53497;SDS011;39382;47.168;16.008;2023-02-28T04:06:33;5.38;;;3.03;;
53497;SDS011;39382;47.168;16.008;2023-02-28T04:08:59;6.93;;;3.67;;
53497;SDS011;39382;47.168;16.008;2023-02-28T04:14:17;6.05;;;3.00;;
53497;SDS011;39382;47.168;16.008;2023-02-28T04:16:43;8.93;;;2.70;;
53497;SDS011;39382;47.168;16.008;2023-02-28T04:19:09;13.77;;;3.80;;
53497;SDS011;39382;47.168;16.008;2023-02-28T04:21:44;6.72;;;3.55;;
53497;SDS011;39382;47.168;16.008;2023-02-28T04:24:12;5.32;;;3.58;;
53497;SDS011;39382;47.168;16.008;2023-02-28T04:26:48;4.82;;;2.30;;
53497;SDS011;39382;47.168;16.008;2023-02-28T04:29:19;5.00;;;2.83;;
53497;SDS011;39382;47.168;16.008;2023-02-28T04:32:03;5.55;;;2.83;;
53497;SDS011;39382;47.168;16.008;2023-02-28T04:34:30;3.53;;;2.67;;
53497;SDS011;39382;47.168;16.008;2023-02-28T04:36:56;6.13;;;3.10;;
53497;SDS011;39382;47.168;16.008;2023-02-28T04:39:23;5.25;;;2.78;;
53497;SDS011;39382;47.168;16.008;2023-02-28T04:41:49;7.20;;;3.22;;
53497;SDS011;39382;47.168;16.008;2023-02-28T04:44:15;4.55;;;2.78;;
53497;SDS011;39382;47.168;16.008;2023-02-28T04:46:42;8.35;;;3.50;;
53497;SDS011;39382;47.168;16.008;2023-02-28T04:49:08;4.28;;;2.55;;
53497;SDS011;39382;47.168;16.008;2023-02-28T04:51:36;6.07;;;3.00;;
53497;SDS011;39382;47.168;16.008;2023-02-28T04:54:02;6.68;;;3.88;;
53497;SDS011;39382;47.168;16.008;2023-02-28T04:56:28;6.13;;;3.90;;
53497;SDS011;39382;47.168;16.008;2023-02-28T04:58:53;9.50;;;3.63;;
53497;SDS011;39382;47.168;16.008;2023-02-28T05:01:24;10.73;;;3.70;;
53497;SDS011;39382;47.168;16.008;2023-02-28T05:03:51;5.88;;;3.75;;
53497;SDS011;39382;47.168;16.008;2023-02-28T05:06:18;6.45;;;3.42;;
53497;SDS011;39382;47.168;16.008;2023-02-28T05:08:45;6.90;;;3.13;;
53497;SDS011;39382;47.168;16.008;2023-02-28T05:11:21;4.68;;;3.42;;
53497;SDS011;39382;47.168;16.008;2023-02-28T05:13:54;4.30;;;3.33;;
53497;SDS011;39382;47.168;16.008;2023-02-28T05:16:20;6.07;;;3.75;;
53497;SDS011;39382;47.168;16.008;2023-02-28T05:18:46;6.50;;;3.90;;
53497;SDS011;39382;47.168;16.008;2023-02-28T05:24:01;6.88;;;4.00;;
53497;SDS011;39382;47.168;16.008;2023-02-28T05:26:29;3.67;;;2.75;;
53497;SDS011;39382;47.168;16.008;2023-02-28T05:28:55;6.65;;;2.78;;
53497;SDS011;39382;47.168;16.008;2023-02-28T05:31:21;6.82;;;3.95;;
53497;SDS011;39382;47.168;16.008;2023-02-28T05:33:47;9.85;;;3.50;;
53497;SDS011;39382;47.168;16.008;2023-02-28T05:36:13;5.18;;;3.47;;
53497;SDS011;39382;47.168;16.008;2023-02-28T05:38:39;8.48;;;4.95;;
53497;SDS011;39382;47.168;16.008;2023-02-28T05:41:08;8.68;;;4.43;;
53497;SDS011;39382;47.168;16.008;2023-02-28T05:43:35;5.38;;;3.78;;
53497;SDS011;39382;47.168;16.008;2023-02-28T05:46:02;10.25;;;3.58;;
53497;SDS011;39382;47.168;16.008;2023-02-28T05:48:33;5.50;;;3.05;;
53497;SDS011;39382;47.168;16.008;2023-02-28T05:51:00;10.98;;;5.10;;
53497;SDS011;39382;47.168;16.008;2023-02-28T05:53:26;8.93;;;4.65;;
53497;SDS011;39382;47.168;16.008;2023-02-28T05:55:51;12.82;;;4.72;;
53497;SDS011;39382;47.168;16.008;2023-02-28T05:58:17;9.88;;;4.93;;
53497;SDS011;39382;47.168;16.008;2023-02-28T06:00:43;12.48;;;6.65;;
53497;SDS011;39382;47.168;16.008;2023-02-28T06:03:09;11.10;;;5.15;;
53497;SDS011;39382;47.168;16.008;2023-02-28T06:05:35;11.10;;;4.90;;
53497;SDS011;39382;47.168;16.008;2023-02-28T06:08:00;10.77;;;4.07;;
53497;SDS011;39382;47.168;16.008;2023-02-28T06:10:26;10.70;;;3.40;;
53497;SDS011;39382;47.168;16.008;2023-02-28T06:12:51;9.52;;;4.38;;
53497;SDS011;39382;47.168;16.008;2023-02-28T06:15:17;10.23;;;5.25;;
53497;SDS011;39382;47.168;16.008;2023-02-28T06:17:43;10.60;;;5.05;;
53497;SDS011;39382;47.168;16.008;2023-02-28T06:20:10;13.25;;;5.63;;
53497;SDS011;39382;47.168;16.008;2023-02-28T06:22:39;6.93;;;4.30;;
53497;SDS011;39382;47.168;16.008;2023-02-28T06:25:05;7.00;;;4.72;;
53497;SDS011;39382;47.168;16.008;2023-02-28T06:27:32;7.82;;;4.28;;
53497;SDS011;39382;47.168;16.008;2023-02-28T06:29:58;8.15;;;3.80;;
53497;SDS011;39382;47.168;16.008;2023-02-28T06:32:24;7.78;;;4.93;;
53497;SDS011;39382;47.168;16.008;2023-02-28T06:34:50;6.03;;;3.67;;
53497;SDS011;39382;47.168;16.008;2023-02-28T06:37:17;8.70;;;5.10;;
53497;SDS011;39382;47.168;16.008;2023-02-28T06:39:43;9.40;;;4.63;;
53497;SDS011;39382;47.168;16.008;2023-02-28T06:42:09;7.25;;;4.03;;
53497;SDS011;39382;47.168;16.008;2023-02-28T06:44:34;10.20;;;4.93;;
53497;SDS011;39382;47.168;16.008;2023-02-28T06:47:00;7.25;;;4.97;;
53497;SDS011;39382;47.168;16.008;2023-02-28T06:49:28;8.07;;;4.68;;
53497;SDS011;39382;47.168;16.008;2023-02-28T06:51:55;6.20;;;3.70;;
53497;SDS011;39382;47.168;16.008;2023-02-28T06:54:20;6.97;;;5.00;;
53497;SDS011;39382;47.168;16.008;2023-02-28T06:56:46;8.65;;;4.63;;
53497;SDS011;39382;47.168;16.008;2023-02-28T06:59:12;12.85;;;4.35;;
53497;SDS011;39382;47.168;16.008;2023-02-28T07:01:38;9.00;;;3.88;;
53497;SDS011;39382;47.168;16.008;2023-02-28T07:04:04;8.32;;;3.95;;
53497;SDS011;39382;47.168;16.008;2023-02-28T07:06:30;7.03;;;3.85;;
53497;SDS011;39382;47.168;16.008;2023-02-28T07:08:56;8.10;;;4.20;;
53497;SDS011;39382;47.168;16.008;2023-02-28T07:11:22;10.35;;;4.38;;
53497;SDS011;39382;47.168;16.008;2023-02-28T07:13:50;7.68;;;4.45;;
53497;SDS011;39382;47.168;16.008;2023-02-28T07:16:17;6.90;;;4.35;;
53497;SDS011;39382;47.168;16.008;2023-02-28T07:18:42;9.65;;;4.72;;
53497;SDS011;39382;47.168;16.008;2023-02-28T07:21:09;13.18;;;3.72;;
53497;SDS011;39382;47.168;16.008;2023-02-28T07:23:35;11.80;;;6.22;;
53497;SDS011;39382;47.168;16.008;2023-02-28T07:26:05;8.27;;;4.57;;
53497;SDS011;39382;47.168;16.008;2023-02-28T07:28:32;8.88;;;4.22;;
53497;SDS011;39382;47.168;16.008;2023-02-28T07:31:02;9.40;;;4.70;;
53497;SDS011;39382;47.168;16.008;2023-02-28T07:33:32;8.45;;;4.38;;
53497;SDS011;39382;47.168;16.008;2023-02-28T07:36:06;8.63;;;4.53;;
53497;SDS011;39382;47.168;16.008;2023-02-28T07:38:34;8.80;;;4.43;;
53497;SDS011;39382;47.168;16.008;2023-02-28T07:41:00;11.77;;;4.53;;
53497;SDS011;39382;47.168;16.008;2023-02-28T07:43:29;7.50;;;4.10;;
53497;SDS011;39382;47.168;16.008;2023-02-28T07:45:55;7.90;;;3.95;;
53497;SDS011;39382;47.168;16.008;2023-02-28T07:48:25;8.88;;;4.60;;
53497;SDS011;39382;47.168;16.008;2023-02-28T07:50:55;15.75;;;4.85;;
53497;SDS011;39382;47.168;16.008;2023-02-28T07:53:21;9.15;;;4.75;;
53497;SDS011;39382;47.168;16.008;2023-02-28T07:55:47;7.40;;;4.07;;
53497;SDS011;39382;47.168;16.008;2023-02-28T07:58:13;9.73;;;4.97;;
53497;SDS011;39382;47.168;16.008;2023-02-28T08:00:38;7.95;;;6.15;;
53497;SDS011;39382;47.168;16.008;2023-02-28T08:03:04;10.10;;;4.78;;
53497;SDS011;39382;47.168;16.008;2023-02-28T08:05:30;8.02;;;4.63;;
53497;SDS011;39382;47.168;16.008;2023-02-28T08:07:55;11.27;;;4.03;;
53497;SDS011;39382;47.168;16.008;2023-02-28T08:10:21;9.07;;;4.50;;
53497;SDS011;39382;47.168;16.008;2023-02-28T08:12:47;10.10;;;4.60;;
53497;SDS011;39382;47.168;16.008;2023-02-28T08:15:13;9.57;;;4.35;;
53497;SDS011;39382;47.168;16.008;2023-02-28T08:17:38;8.55;;;4.43;;
53497;SDS011;39382;47.168;16.008;2023-02-28T08:20:04;7.68;;;4.75;;
53497;SDS011;39382;47.168;16.008;2023-02-28T08:22:30;9.68;;;5.38;;
53497;SDS011;39382;47.168;16.008;2023-02-28T08:24:56;7.82;;;5.00;;
53497;SDS011;39382;47.168;16.008;2023-02-28T08:27:21;10.07;;;5.13;;
53497;SDS011;39382;47.168;16.008;2023-02-28T08:29:47;15.07;;;7.10;;
53497;SDS011;39382;47.168;16.008;2023-02-28T08:32:13;11.20;;;4.85;;
53497;SDS011;39382;47.168;16.008;2023-02-28T08:34:39;10.95;;;5.15;;
53497;SDS011;39382;47.168;16.008;2023-02-28T08:37:05;8.68;;;4.90;;
53497;SDS011;39382;47.168;16.008;2023-02-28T08:39:33;13.98;;;8.60;;
53497;SDS011;39382;47.168;16.008;2023-02-28T08:42:00;10.55;;;6.00;;
53497;SDS011;39382;47.168;16.008;2023-02-28T08:44:26;10.05;;;4.90;;
53497;SDS011;39382;47.168;16.008;2023-02-28T08:46:52;9.20;;;5.03;;
53497;SDS011;39382;47.168;16.008;2023-02-28T08:49:17;9.88;;;4.88;;
53497;SDS011;39382;47.168;16.008;2023-02-28T08:51:43;9.23;;;4.93;;
53497;SDS011;39382;47.168;16.008;2023-02-28T08:54:09;8.98;;;4.60;;
53497;SDS011;39382;47.168;16.008;2023-02-28T08:56:37;9.57;;;4.43;;
53497;SDS011;39382;47.168;16.008;2023-02-28T08:59:03;11.45;;;4.40;;
53497;SDS011;39382;47.168;16.008;2023-02-28T09:01:29;7.80;;;4.93;;
53497;SDS011;39382;47.168;16.008;2023-02-28T09:03:56;11.77;;;4.82;;
53497;SDS011;39382;47.168;16.008;2023-02-28T09:06:23;11.07;;;4.70;;
53497;SDS011;39382;47.168;16.008;2023-02-28T09:08:50;8.60;;;4.57;;
53497;SDS011;39382;47.168;16.008;2023-02-28T09:11:16;11.77;;;5.30;;
53497;SDS011;39382;47.168;16.008;2023-02-28T09:13:43;10.30;;;5.60;;
53497;SDS011;39382;47.168;16.008;2023-02-28T09:16:10;8.10;;;3.92;;
53497;SDS011;39382;47.168;16.008;2023-02-28T09:18:37;10.65;;;4.55;;
53497;SDS011;39382;47.168;16.008;2023-02-28T09:21:05;9.35;;;5.57;;
53497;SDS011;39382;47.168;16.008;2023-02-28T09:23:35;11.63;;;5.22;;
53497;SDS011;39382;47.168;16.008;2023-02-28T09:26:03;10.48;;;5.50;;
53497;SDS011;39382;47.168;16.008;2023-02-28T09:28:29;7.00;;;4.57;;
53497;SDS011;39382;47.168;16.008;2023-02-28T09:30:55;8.75;;;4.47;;
53497;SDS011;39382;47.168;16.008;2023-02-28T09:33:22;9.23;;;5.47;;
53497;SDS011;39382;47.168;16.008;2023-02-28T09:35:48;9.93;;;5.10;;
53497;SDS011;39382;47.168;16.008;2023-02-28T09:38:15;10.93;;;5.32;;
53497;SDS011;39382;47.168;16.008;2023-02-28T09:43:18;16.13;;;7.03;;
53497;SDS011;39382;47.168;16.008;2023-02-28T09:45:53;8.48;;;5.07;;
53497;SDS011;39382;47.168;16.008;2023-02-28T09:48:31;18.98;;;6.40;;
53497;SDS011;39382;47.168;16.008;2023-02-28T09:51:05;13.93;;;6.47;;
53497;SDS011;39382;47.168;16.008;2023-02-28T09:53:40;10.45;;;6.28;;
53497;SDS011;39382;47.168;16.008;2023-02-28T09:56:25;15.70;;;6.47;;
53497;SDS011;39382;47.168;16.008;2023-02-28T09:59:10;12.35;;;6.13;;
53497;SDS011;39382;47.168;16.008;2023-02-28T10:04:39;10.80;;;5.85;;
53497;SDS011;39382;47.168;16.008;2023-02-28T10:10:42;15.07;;;8.73;;
53497;SDS011;39382;47.168;16.008;2023-02-28T10:13:04;13.02;;;7.25;;
53497;SDS011;39382;47.168;16.008;2023-02-28T10:15:52;12.50;;;6.05;;
53497;SDS011;39382;47.168;16.008;2023-02-28T10:18:25;10.48;;;5.97;;
53497;SDS011;39382;47.168;16.008;2023-02-28T10:20:56;14.38;;;6.20;;
53497;SDS011;39382;47.168;16.008;2023-02-28T10:23:28;16.88;;;5.85;;
53497;SDS011;39382;47.168;16.008;2023-02-28T10:26:01;20.60;;;7.72;;
53497;SDS011;39382;47.168;16.008;2023-02-28T10:28:38;23.60;;;8.80;;
53497;SDS011;39382;47.168;16.008;2023-02-28T10:31:04;19.75;;;8.32;;
53497;SDS011;39382;47.168;16.008;2023-02-28T10:33:33;13.27;;;6.57;;
53497;SDS011;39382;47.168;16.008;2023-02-28T10:36:00;14.55;;;7.60;;
53497;SDS011;39382;47.168;16.008;2023-02-28T10:38:28;12.30;;;6.72;;
53497;SDS011;39382;47.168;16.008;2023-02-28T10:41:07;13.00;;;7.43;;
53497;SDS011;39382;47.168;16.008;2023-02-28T10:43:36;12.80;;;6.68;;
53497;SDS011;39382;47.168;16.008;2023-02-28T10:51:05;14.75;;;7.82;;
53497;SDS011;39382;47.168;16.008;2023-02-28T10:53:35;14.60;;;6.50;;
53497;SDS011;39382;47.168;16.008;2023-02-28T11:01:23;12.38;;;7.10;;
53497;SDS011;39382;47.168;16.008;2023-02-28T11:03:49;12.02;;;6.93;;
53497;SDS011;39382;47.168;16.008;2023-02-28T11:06:17;13.07;;;6.15;;
53497;SDS011;39382;47.168;16.008;2023-02-28T11:08:55;11.82;;;7.20;;
53497;SDS011;39382;47.168;16.008;2023-02-28T11:11:22;12.82;;;6.65;;
53497;SDS011;39382;47.168;16.008;2023-02-28T11:14:03;11.23;;;6.28;;
53497;SDS011;39382;47.168;16.008;2023-02-28T11:16:34;12.27;;;7.30;;
53497;SDS011;39382;47.168;16.008;2023-02-28T11:19:03;14.63;;;7.63;;
53497;SDS011;39382;47.168;16.008;2023-02-28T11:21:33;19.83;;;8.52;;
53497;SDS011;39382;47.168;16.008;2023-02-28T11:26:54;16.33;;;7.00;;
53497;SDS011;39382;47.168;16.008;2023-02-28T11:29:24;18.80;;;7.85;;
53497;SDS011;39382;47.168;16.008;2023-02-28T11:34:30;20.75;;;8.95;;
53497;SDS011;39382;47.168;16.008;2023-02-28T11:36:58;20.27;;;9.50;;
53497;SDS011;39382;47.168;16.008;2023-02-28T11:39:25;14.93;;;8.65;;
53497;SDS011;39382;47.168;16.008;2023-02-28T11:47:10;27.35;;;9.48;;
53497;SDS011;39382;47.168;16.008;2023-02-28T11:52:21;20.88;;;9.38;;
53497;SDS011;39382;47.168;16.008;2023-02-28T11:55:02;27.17;;;11.98;;
53497;SDS011;39382;47.168;16.008;2023-02-28T12:05:44;19.63;;;8.82;;
53497;SDS011;39382;47.168;16.008;2023-02-28T12:11:09;20.67;;;9.52;;
53497;SDS011;39382;47.168;16.008;2023-02-28T12:14:44;27.55;;;10.82;;
53497;SDS011;39382;47.168;16.008;2023-02-28T12:16:53;23.70;;;10.00;;
53497;SDS011;39382;47.168;16.008;2023-02-28T12:22:28;19.98;;;9.35;;
53497;SDS011;39382;47.168;16.008;2023-02-28T12:28:18;21.70;;;9.45;;
53497;SDS011;39382;47.168;16.008;2023-02-28T12:33:26;20.27;;;10.15;;
53497;SDS011;39382;47.168;16.008;2023-02-28T12:35:59;26.92;;;10.23;;
53497;SDS011;39382;47.168;16.008;2023-02-28T12:38:37;24.73;;;10.70;;
53497;SDS011;39382;47.168;16.008;2023-02-28T12:43:59;21.00;;;9.55;;
53497;SDS011;39382;47.168;16.008;2023-02-28T12:49:08;23.95;;;11.10;;
53497;SDS011;39382;47.168;16.008;2023-02-28T12:51:37;22.83;;;10.27;;
53497;SDS011;39382;47.168;16.008;2023-02-28T12:56:33;21.42;;;10.75;;
53497;SDS011;39382;47.168;16.008;2023-02-28T13:04:52;21.73;;;10.13;;
53497;SDS011;39382;47.168;16.008;2023-02-28T13:10:02;26.85;;;12.95;;
53497;SDS011;39382;47.168;16.008;2023-02-28T13:12:32;22.70;;;10.70;;
53497;SDS011;39382;47.168;16.008;2023-02-28T13:17:50;18.92;;;9.43;;
53497;SDS011;39382;47.168;16.008;2023-02-28T13:20:21;21.23;;;9.75;;
53497;SDS011;39382;47.168;16.008;2023-02-28T13:22:51;22.67;;;11.45;;
53497;SDS011;39382;47.168;16.008;2023-02-28T13:27:47;17.92;;;9.82;;
53497;SDS011;39382;47.168;16.008;2023-02-28T13:36:09;26.45;;;9.75;;
53497;SDS011;39382;47.168;16.008;2023-02-28T13:38:39;15.82;;;8.73;;
53497;SDS011;39382;47.168;16.008;2023-02-28T13:44:14;17.10;;;7.60;;
53497;SDS011;39382;47.168;16.008;2023-02-28T13:49:19;16.58;;;8.23;;
53497;SDS011;39382;47.168;16.008;2023-02-28T13:51:46;18.00;;;7.35;;
53497;SDS011;39382;47.168;16.008;2023-02-28T14:02:49;13.25;;;6.15;;
53497;SDS011;39382;47.168;16.008;2023-02-28T14:05:47;10.75;;;5.25;;
53497;SDS011;39382;47.168;16.008;2023-02-28T14:08:35;10.63;;;5.75;;
53497;SDS011;39382;47.168;16.008;2023-02-28T14:11:22;11.55;;;5.72;;
53497;SDS011;39382;47.168;16.008;2023-02-28T14:13:53;12.77;;;6.07;;
53497;SDS011;39382;47.168;16.008;2023-02-28T14:16:26;12.05;;;6.18;;
53497;SDS011;39382;47.168;16.008;2023-02-28T14:19:19;16.60;;;8.07;;
53497;SDS011;39382;47.168;16.008;2023-02-28T14:33:14;13.90;;;6.47;;
53497;SDS011;39382;47.168;16.008;2023-02-28T14:41:37;10.32;;;6.13;;
53497;SDS011;39382;47.168;16.008;2023-02-28T14:46:41;10.02;;;5.13;;
53497;SDS011;39382;47.168;16.008;2023-02-28T14:49:27;10.68;;;6.75;;
53497;SDS011;39382;47.168;16.008;2023-02-28T14:52:32;13.52;;;7.00;;
53497;SDS011;39382;47.168;16.008;2023-02-28T14:57:28;16.42;;;6.55;;
53497;SDS011;39382;47.168;16.008;2023-02-28T15:02:35;14.23;;;8.70;;
53497;SDS011;39382;47.168;16.008;2023-02-28T15:07:43;17.45;;;8.60;;
53497;SDS011;39382;47.168;16.008;2023-02-28T15:10:20;13.20;;;6.90;;
53497;SDS011;39382;47.168;16.008;2023-02-28T15:12:53;14.52;;;7.35;;
53497;SDS011;39382;47.168;16.008;2023-02-28T15:15:32;16.80;;;7.93;;
53497;SDS011;39382;47.168;16.008;2023-02-28T15:18:10;17.63;;;9.85;;
53497;SDS011;39382;47.168;16.008;2023-02-28T15:20:59;17.27;;;7.68;;
53497;SDS011;39382;47.168;16.008;2023-02-28T15:23:31;14.40;;;8.73;;
53497;SDS011;39382;47.168;16.008;2023-02-28T15:25:59;17.98;;;7.80;;
53497;SDS011;39382;47.168;16.008;2023-02-28T15:28:25;14.00;;;7.40;;
53497;SDS011;39382;47.168;16.008;2023-02-28T15:31:02;14.43;;;7.22;;
53497;SDS011;39382;47.168;16.008;2023-02-28T15:33:47;14.57;;;6.97;;
53497;SDS011;39382;47.168;16.008;2023-02-28T15:36:21;16.38;;;7.90;;
53497;SDS011;39382;47.168;16.008;2023-02-28T15:38:52;12.32;;;6.50;;
53497;SDS011;39382;47.168;16.008;2023-02-28T15:41:37;18.77;;;9.57;;
53497;SDS011;39382;47.168;16.008;2023-02-28T15:46:59;14.10;;;7.45;;
53497;SDS011;39382;47.168;16.008;2023-02-28T15:49:29;14.38;;;7.07;;
53497;SDS011;39382;47.168;16.008;2023-02-28T15:52:14;10.38;;;6.00;;
53497;SDS011;39382;47.168;16.008;2023-02-28T15:54:42;22.17;;;10.02;;
53497;SDS011;39382;47.168;16.008;2023-02-28T15:57:18;18.05;;;7.85;;
53497;SDS011;39382;47.168;16.008;2023-02-28T15:59:56;12.32;;;5.90;;
53497;SDS011;39382;47.168;16.008;2023-02-28T16:02:33;11.93;;;6.28;;
53497;SDS011;39382;47.168;16.008;2023-02-28T16:07:36;9.00;;;5.47;;
53497;SDS011;39382;47.168;16.008;2023-02-28T16:10:07;10.15;;;6.05;;
53497;SDS011;39382;47.168;16.008;2023-02-28T16:12:35;13.68;;;6.53;;
53497;SDS011;39382;47.168;16.008;2023-02-28T16:15:05;14.38;;;6.32;;
53497;SDS011;39382;47.168;16.008;2023-02-28T16:17:34;8.15;;;4.60;;
53497;SDS011;39382;47.168;16.008;2023-02-28T16:20:05;14.00;;;5.80;;
53497;SDS011;39382;47.168;16.008;2023-02-28T16:22:42;8.43;;;4.97;;
53497;SDS011;39382;47.168;16.008;2023-02-28T16:25:11;11.82;;;6.15;;
53497;SDS011;39382;47.168;16.008;2023-02-28T16:27:42;10.20;;;5.38;;
53497;SDS011;39382;47.168;16.008;2023-02-28T16:30:15;8.48;;;4.63;;
53497;SDS011;39382;47.168;16.008;2023-02-28T16:32:43;10.48;;;4.70;;
53497;SDS011;39382;47.168;16.008;2023-02-28T16:35:10;12.52;;;6.15;;
53497;SDS011;39382;47.168;16.008;2023-02-28T16:37:36;10.52;;;5.13;;
53497;SDS011;39382;47.168;16.008;2023-02-28T16:40:02;9.82;;;5.22;;
53497;SDS011;39382;47.168;16.008;2023-02-28T16:42:28;10.38;;;5.35;;
53497;SDS011;39382;47.168;16.008;2023-02-28T16:44:55;9.77;;;4.93;;
53497;SDS011;39382;47.168;16.008;2023-02-28T16:47:21;10.52;;;5.65;;
53497;SDS011;39382;47.168;16.008;2023-02-28T16:49:47;9.35;;;5.45;;
53497;SDS011;39382;47.168;16.008;2023-02-28T16:52:13;9.13;;;4.85;;
53497;SDS011;39382;47.168;16.008;2023-02-28T16:54:39;8.95;;;4.93;;
53497;SDS011;39382;47.168;16.008;2023-02-28T16:57:07;14.25;;;5.30;;
53497;SDS011;39382;47.168;16.008;2023-02-28T16:59:45;9.50;;;5.03;;
53497;SDS011;39382;47.168;16.008;2023-02-28T17:02:12;14.10;;;6.20;;
53497;SDS011;39382;47.168;16.008;2023-02-28T17:04:41;11.40;;;5.65;;
53497;SDS011;39382;47.168;16.008;2023-02-28T17:07:11;10.27;;;4.65;;
53497;SDS011;39382;47.168;16.008;2023-02-28T17:09:38;11.20;;;5.10;;
53497;SDS011;39382;47.168;16.008;2023-02-28T17:12:05;9.85;;;5.03;;
53497;SDS011;39382;47.168;16.008;2023-02-28T17:14:31;8.05;;;4.50;;
53497;SDS011;39382;47.168;16.008;2023-02-28T17:16:57;12.20;;;5.38;;
53497;SDS011;39382;47.168;16.008;2023-02-28T17:19:22;11.93;;;5.72;;
53497;SDS011;39382;47.168;16.008;2023-02-28T17:21:48;15.00;;;6.80;;
53497;SDS011;39382;47.168;16.008;2023-02-28T17:24:14;13.02;;;6.65;;
53497;SDS011;39382;47.168;16.008;2023-02-28T17:26:40;15.07;;;6.60;;
53497;SDS011;39382;47.168;16.008;2023-02-28T17:29:15;13.90;;;6.22;;
53497;SDS011;39382;47.168;16.008;2023-02-28T17:31:45;14.05;;;6.45;;
53497;SDS011;39382;47.168;16.008;2023-02-28T17:34:11;11.02;;;6.05;;
53497;SDS011;39382;47.168;16.008;2023-02-28T17:36:43;11.15;;;5.57;;